createdAt,value
2022-11-19T00:00:07.085Z,9.667983
2022-11-19T00:01:07.061Z,9.667955
2022-11-19T00:02:07.095Z,9.667996
2022-11-19T00:03:07.039Z,9.667977
2022-11-19T00:04:07.076Z,9.667973
2022-11-19T00:05:07.025Z,9.667938
2022-11-19T00:06:07.020Z,9.667945
2022-11-19T00:07:07.112Z,9.667930
2022-11-19T00:08:07.005Z,9.667941
2022-11-19T00:09:07.003Z,9.667979
2022-11-19T00:10:07.013Z,9.668003
2022-11-19T00:11:09.670Z,9.668009
2022-11-19T00:12:07.960Z,9.668009
2022-11-19T00:13:08.191Z,9.667999
2022-11-19T00:14:06.962Z,9.668004
2022-11-19T00:15:06.961Z,9.668015
2022-11-19T00:16:06.933Z,9.667979
2022-11-19T00:17:06.937Z,9.667985
2022-11-19T00:18:06.985Z,9.667970
2022-11-19T00:19:06.950Z,9.668025
2022-11-19T00:20:06.944Z,9.668058
2022-11-19T00:21:08.411Z,9.668037
2022-11-19T00:22:06.931Z,9.668030
2022-11-19T00:23:06.879Z,9.668018
2022-11-19T00:24:06.894Z,9.668037
2022-11-19T00:25:06.890Z,9.668021
2022-11-19T00:26:06.913Z,9.668032
2022-11-19T00:27:06.902Z,9.668009
2022-11-19T00:28:06.864Z,9.667979
2022-11-19T00:29:06.847Z,9.667996
2022-11-19T00:30:19.902Z,9.668004
2022-11-19T00:31:08.833Z,9.668031
2022-11-19T00:32:06.832Z,9.668046
2022-11-19T00:33:07.749Z,9.668023
2022-11-19T00:34:06.825Z,9.668000
2022-11-19T00:35:06.851Z,9.667981
2022-11-19T00:36:06.794Z,9.667997
2022-11-19T00:37:06.771Z,9.667952
2022-11-19T00:38:06.777Z,9.667981
2022-11-19T00:39:06.762Z,9.667985
2022-11-19T00:40:06.754Z,9.668005
2022-11-19T00:41:06.781Z,9.667964
2022-11-19T00:42:06.737Z,9.667961
2022-11-19T00:43:06.749Z,9.667936
2022-11-19T00:44:06.767Z,9.667935
2022-11-19T00:45:06.754Z,9.667923
2022-11-19T00:46:06.740Z,9.667957
2022-11-19T00:47:06.716Z,9.667987
2022-11-19T00:48:06.701Z,9.667961
2022-11-19T00:49:06.712Z,9.667941
2022-11-19T00:50:06.674Z,9.667989
2022-11-19T00:51:06.693Z,9.667969
2022-11-19T00:52:06.800Z,9.668024
2022-11-19T00:53:06.638Z,9.667933
2022-11-19T00:54:07.657Z,9.667947
2022-11-19T00:55:06.639Z,9.667965
2022-11-19T00:56:06.659Z,9.667934
2022-11-19T00:57:06.625Z,9.667883
2022-11-19T00:58:06.615Z,9.667903
2022-11-19T00:59:07.625Z,9.667908
2022-11-19T01:00:06.623Z,9.667863
2022-11-19T01:01:08.223Z,9.667895
2022-11-19T01:02:06.605Z,9.667882
2022-11-19T01:03:06.609Z,9.667852
2022-11-19T01:04:06.634Z,9.667865
2022-11-19T01:05:06.582Z,9.667871
2022-11-19T01:06:06.702Z,9.667863
2022-11-19T01:07:06.648Z,9.667884
2022-11-19T01:08:06.544Z,9.667866
2022-11-19T01:09:06.608Z,9.667877
2022-11-19T01:10:06.542Z,9.667832
2022-11-19T01:11:06.528Z,9.667961
2022-11-19T01:12:06.530Z,9.667923
2022-11-19T01:13:06.518Z,9.667954
2022-11-19T01:14:06.540Z,9.667983
2022-11-19T01:15:06.499Z,9.667925
2022-11-19T01:16:06.490Z,9.667962
2022-11-19T01:17:06.493Z,9.667998
2022-11-19T01:18:06.482Z,9.667946
2022-11-19T01:19:06.500Z,9.667999
2022-11-19T01:20:06.503Z,9.667987
2022-11-19T01:21:06.497Z,9.667975
2022-11-19T01:22:06.467Z,9.667974
2022-11-19T01:23:06.446Z,9.668029
2022-11-19T01:24:06.443Z,9.668024
2022-11-19T01:25:06.426Z,9.667973
2022-11-19T01:26:06.414Z,9.668031
2022-11-19T01:27:06.424Z,9.668008
2022-11-19T01:28:06.400Z,9.667982
2022-11-19T01:29:06.398Z,9.668013
2022-11-19T01:30:06.474Z,9.668000
2022-11-19T01:31:06.394Z,9.667955
2022-11-19T01:32:06.363Z,9.667896
2022-11-19T01:33:06.381Z,9.667881
2022-11-19T01:34:06.374Z,9.667966
2022-11-19T01:35:06.379Z,9.667956
2022-11-19T01:36:06.330Z,9.667974
2022-11-19T01:37:06.341Z,9.667974
2022-11-19T01:38:06.355Z,9.667996
2022-11-19T01:39:06.333Z,9.668042
2022-11-19T01:40:06.305Z,9.668039
2022-11-19T01:41:06.274Z,9.668036
2022-11-19T01:42:07.348Z,9.668027
2022-11-19T01:43:06.276Z,9.668013
2022-11-19T01:44:06.277Z,9.668001
2022-11-19T01:45:06.284Z,9.668022
2022-11-19T01:46:06.269Z,9.668048
2022-11-19T01:47:06.291Z,9.667955
2022-11-19T01:48:06.257Z,9.667951
2022-11-19T01:49:06.240Z,9.667993
2022-11-19T01:50:06.256Z,9.667998
2022-11-19T01:51:06.218Z,9.667970
2022-11-19T01:52:06.241Z,9.667900
2022-11-19T01:53:06.250Z,9.667975
2022-11-19T01:54:06.219Z,9.667971
2022-11-19T01:55:06.182Z,9.667929
2022-11-19T01:56:06.204Z,9.667997
2022-11-19T01:57:06.264Z,9.667987
2022-11-19T01:58:06.157Z,9.668056
2022-11-19T01:59:06.165Z,9.668046
2022-11-19T02:00:06.157Z,9.667989
2022-11-19T02:01:06.188Z,9.667926
2022-11-19T02:02:06.164Z,9.668016
2022-11-19T02:03:06.147Z,9.667974
2022-11-19T02:04:06.131Z,9.667880
2022-11-19T02:05:06.191Z,9.667951
2022-11-19T02:06:06.131Z,9.667971
2022-11-19T02:07:06.159Z,9.668034
2022-11-19T02:08:06.146Z,9.668061
2022-11-19T02:09:06.088Z,9.668082
2022-11-19T02:10:06.071Z,9.668090
2022-11-19T02:11:06.723Z,9.668069
2022-11-19T02:12:06.091Z,9.668087
2022-11-19T02:13:06.052Z,9.668088
2022-11-19T02:17:32.708Z,9.668102
2022-11-19T02:18:32.708Z,9.668150
2022-11-19T02:19:32.737Z,9.668123
2022-11-19T02:20:32.703Z,9.668090
2022-11-19T02:21:32.715Z,9.668105
2022-11-19T02:22:32.669Z,9.668106
2022-11-19T02:23:32.671Z,9.668114
2022-11-19T02:25:04.581Z,9.668017
2022-11-19T02:25:32.685Z,9.668110
2022-11-19T02:26:32.637Z,9.668049
2022-11-19T02:27:32.623Z,9.668097
2022-11-19T02:28:32.636Z,9.668028
2022-11-19T02:29:32.623Z,9.668084
2022-11-19T02:30:32.635Z,9.668052
2022-11-19T02:31:32.592Z,9.668058
2022-11-19T02:32:32.595Z,9.668035
2022-11-19T02:33:32.607Z,9.668035
2022-11-19T02:34:32.587Z,9.668015
2022-11-19T02:35:32.595Z,9.667994
2022-11-19T02:36:32.549Z,9.667958
2022-11-19T02:37:32.602Z,9.667966
2022-11-19T02:38:32.541Z,9.667984
2022-11-19T02:39:32.543Z,9.667999
2022-11-19T02:40:32.644Z,9.667904
2022-11-19T02:41:32.536Z,9.668031
2022-11-19T02:42:32.501Z,9.667981
2022-11-19T02:43:32.553Z,9.668028
2022-11-19T02:44:32.512Z,9.667956
2022-11-19T02:45:32.549Z,9.668019
2022-11-19T02:46:32.529Z,9.668048
2022-11-19T02:47:32.463Z,9.667924
2022-11-19T02:48:32.475Z,9.667978
2022-11-19T02:49:32.468Z,9.668000
2022-11-19T02:50:32.461Z,9.668044
2022-11-19T02:51:32.433Z,9.668066
2022-11-19T02:52:32.430Z,9.668102
2022-11-19T02:53:32.453Z,9.668092
2022-11-19T02:54:32.480Z,9.668060
2022-11-19T02:55:32.433Z,9.668016
2022-11-19T02:56:32.404Z,9.668006
2022-11-19T02:57:32.405Z,9.668013
2022-11-19T02:58:32.420Z,9.667998
2022-11-19T02:59:32.384Z,9.667917
2022-11-19T03:00:32.389Z,9.668034
2022-11-19T03:01:32.402Z,9.667947
2022-11-19T03:02:32.385Z,9.667912
2022-11-19T03:03:32.393Z,9.668071
2022-11-19T03:04:32.355Z,9.668007
2022-11-19T03:05:32.337Z,9.667966
2022-11-19T03:06:32.345Z,9.667990
2022-11-19T03:07:32.344Z,9.667955
2022-11-19T03:08:32.308Z,9.667969
2022-11-19T03:09:32.330Z,9.668075
2022-11-19T03:10:32.313Z,9.668119
2022-11-19T03:11:32.305Z,9.668029
2022-11-19T03:12:32.291Z,9.668056
2022-11-19T03:13:32.328Z,9.668036
2022-11-19T03:14:32.285Z,9.668048
2022-11-19T03:15:32.333Z,9.667975
2022-11-19T03:16:32.237Z,9.667979
2022-11-19T03:17:32.254Z,9.668033
2022-11-19T03:18:32.245Z,9.667994
2022-11-19T03:19:32.239Z,9.667886
2022-11-19T03:20:32.221Z,9.667936
2022-11-19T03:21:32.347Z,9.667977
2022-11-19T03:22:32.200Z,9.667966
2022-11-19T03:23:32.237Z,9.667904
2022-11-19T03:24:32.191Z,9.667972
2022-11-19T03:25:32.231Z,9.668008
2022-11-19T03:26:32.277Z,9.668012
2022-11-19T03:27:32.191Z,9.668058
2022-11-19T03:28:32.181Z,9.667989
2022-11-19T03:29:32.153Z,9.667993
2022-11-19T03:30:32.207Z,9.668067
2022-11-19T03:31:32.146Z,9.667954
2022-11-19T03:32:32.155Z,9.668030
2022-11-19T03:33:32.185Z,9.668053
2022-11-19T03:34:32.115Z,9.667969
2022-11-19T03:35:32.697Z,9.668025
2022-11-19T03:36:32.108Z,9.668007
2022-11-19T03:37:32.103Z,9.667966
2022-11-19T03:38:32.106Z,9.667920
2022-11-19T03:39:32.073Z,9.667933
2022-11-19T03:40:32.091Z,9.668037
2022-11-19T03:41:32.054Z,9.668000
2022-11-19T03:42:32.064Z,9.668013
2022-11-19T03:43:32.055Z,9.668003
2022-11-19T03:44:32.058Z,9.667997
2022-11-19T03:45:32.039Z,9.668025
2022-11-19T03:46:32.023Z,9.667970
2022-11-19T03:47:32.065Z,9.667971
2022-11-19T04:04:52.565Z,9.667867
2022-11-19T04:05:53.481Z,9.668032
2022-11-19T04:06:52.547Z,9.667917
2022-11-19T04:07:52.588Z,9.667966
2022-11-19T04:08:52.565Z,9.667982
2022-11-19T04:09:52.524Z,9.667986
2022-11-19T04:10:52.540Z,9.667997
2022-11-19T04:14:38.134Z,9.667983
2022-11-19T04:15:38.139Z,9.668044
2022-11-19T04:16:38.135Z,9.667988
2022-11-19T04:17:38.163Z,9.668016
2022-11-19T04:18:38.101Z,9.668017
2022-11-19T04:19:38.132Z,9.668067
2022-11-19T04:20:38.117Z,9.667945
2022-11-19T04:21:38.092Z,9.667891
2022-11-19T04:22:38.081Z,9.667901
2022-11-19T04:23:38.076Z,9.667944
2022-11-19T04:24:38.065Z,9.668085
2022-11-19T04:25:38.088Z,9.668209
2022-11-19T04:26:38.093Z,9.668064
2022-11-19T04:27:38.076Z,9.668079
2022-11-19T04:28:38.015Z,9.668019
2022-11-19T04:29:38.029Z,9.667956
2022-11-19T04:30:38.042Z,9.667913
2022-11-19T04:31:38.020Z,9.668013
2022-11-19T04:32:37.999Z,9.668003
2022-11-19T04:33:37.999Z,9.668014
2022-11-19T04:34:37.991Z,9.667996
2022-11-19T04:35:37.983Z,9.667983
2022-11-19T04:36:37.981Z,9.667988
2022-11-19T04:37:37.999Z,9.668031
2022-11-19T04:38:37.945Z,9.668091
2022-11-19T04:39:37.943Z,9.668047
2022-11-19T04:40:37.931Z,9.668005
2022-11-19T04:41:37.921Z,9.668003
2022-11-19T04:42:37.958Z,9.667974
2022-11-19T04:43:37.920Z,9.667948
2022-11-19T04:44:37.918Z,9.667962
2022-11-19T04:45:37.917Z,9.667971
2022-11-19T04:46:37.884Z,9.667974
2022-11-19T04:47:37.941Z,9.667925
2022-11-19T04:48:37.901Z,9.667809
2022-11-19T04:49:37.865Z,9.667917
2022-11-19T04:50:37.878Z,9.667860
2022-11-19T04:51:37.851Z,9.667971
2022-11-19T04:52:41.087Z,9.668087
2022-11-19T04:53:38.969Z,9.668054
2022-11-19T04:54:37.839Z,9.668077
2022-11-19T04:55:37.845Z,9.668037
2022-11-19T04:56:37.825Z,9.668007
2022-11-19T04:57:37.823Z,9.668017
2022-11-19T04:58:37.822Z,9.667989
2022-11-19T04:59:37.818Z,9.667995
2022-11-19T05:00:37.830Z,9.668015
2022-11-19T05:01:37.850Z,9.668020
2022-11-19T05:02:37.777Z,9.667985
2022-11-19T05:03:37.773Z,9.668041
2022-11-19T05:04:37.836Z,9.667988
2022-11-19T05:05:37.814Z,9.667960
2022-11-19T05:06:37.771Z,9.668009
2022-11-19T05:07:37.792Z,9.668006
2022-11-19T05:08:37.722Z,9.668003
2022-11-19T05:09:37.728Z,9.667975
2022-11-19T05:10:37.797Z,9.667981
2022-11-19T05:11:37.702Z,9.667934
2022-11-19T05:12:37.704Z,9.667935
2022-11-19T05:13:37.708Z,9.668004
2022-11-19T05:14:37.696Z,9.668118
2022-11-19T05:15:37.725Z,9.667951
2022-11-19T05:16:37.693Z,9.667953
2022-11-19T05:17:38.300Z,9.668007
2022-11-19T05:18:37.651Z,9.667910
2022-11-19T05:19:37.644Z,9.667970
2022-11-19T05:20:37.656Z,9.668003
2022-11-19T05:21:37.628Z,9.667969
2022-11-19T05:22:37.662Z,9.668026
2022-11-19T05:23:37.636Z,9.668000
2022-11-19T05:24:37.652Z,9.668077
2022-11-19T05:25:37.607Z,9.668039
2022-11-19T05:26:37.607Z,9.668044
2022-11-19T05:27:37.639Z,9.668019
2022-11-19T05:28:39.660Z,9.668029
2022-11-19T05:29:38.603Z,9.668012
2022-11-19T05:30:37.603Z,9.668026
2022-11-19T05:31:37.560Z,9.668011
2022-11-19T05:32:37.591Z,9.667953
2022-11-19T05:33:37.588Z,9.668020
2022-11-19T05:34:37.560Z,9.667980
2022-11-19T05:35:37.533Z,9.668026
2022-11-19T05:36:37.527Z,9.667987
2022-11-19T05:37:37.513Z,9.667996
2022-11-19T05:38:37.556Z,9.668044
2022-11-19T05:39:37.553Z,9.667959
2022-11-19T05:40:37.530Z,9.668048
2022-11-19T05:41:37.501Z,9.667967
2022-11-19T05:42:37.505Z,9.668030
2022-11-19T05:43:37.492Z,9.668059
2022-11-19T05:44:37.525Z,9.668029
2022-11-19T05:45:37.491Z,9.668070
2022-11-19T05:46:37.479Z,9.668036
2022-11-19T05:47:37.449Z,9.667970
2022-11-19T05:48:37.484Z,9.668041
2022-11-19T05:49:37.449Z,9.667998
2022-11-19T05:50:37.443Z,9.668036
2022-11-19T05:51:37.422Z,9.667993
2022-11-19T05:52:37.424Z,9.668014
2022-11-19T05:53:37.412Z,9.668021
2022-11-19T05:54:37.411Z,9.668056
2022-11-19T05:55:37.428Z,9.668032
2022-11-19T05:56:37.380Z,9.667985
2022-11-19T05:57:37.371Z,9.668022
2022-11-19T05:58:37.380Z,9.667987
2022-11-19T05:59:42.240Z,9.667951
2022-11-19T06:00:39.377Z,9.667950
2022-11-19T06:01:37.353Z,9.667923
2022-11-19T06:02:37.416Z,9.667945
2022-11-19T06:03:37.329Z,9.667939
2022-11-19T06:04:37.323Z,9.667856
2022-11-19T06:05:40.319Z,9.667974
2022-11-19T06:06:38.320Z,9.667987
2022-11-19T06:07:37.329Z,9.668007
2022-11-19T06:08:37.292Z,9.668036
2022-11-19T06:09:37.277Z,9.667995
2022-11-19T06:10:37.318Z,9.667997
2022-11-19T06:11:37.268Z,9.667912
2022-11-19T06:12:40.193Z,9.667957
2022-11-19T06:13:38.263Z,9.667988
2022-11-19T06:14:37.251Z,9.667995
2022-11-19T06:15:37.249Z,9.667961
2022-11-19T06:16:37.254Z,9.667926
2022-11-19T06:17:37.211Z,9.667958
2022-11-19T06:18:37.225Z,9.667915
2022-11-19T06:19:37.202Z,9.667977
2022-11-19T06:20:37.205Z,9.667872
2022-11-19T06:21:37.187Z,9.667827
2022-11-19T06:22:37.222Z,9.667830
2022-11-19T06:23:38.194Z,9.667910
2022-11-19T06:24:37.171Z,9.667917
2022-11-19T06:25:37.179Z,9.667946
2022-11-19T06:26:37.156Z,9.667926
2022-11-19T06:27:37.171Z,9.667920
2022-11-19T06:28:37.147Z,9.667940
2022-11-19T06:29:37.126Z,9.667914
2022-11-19T06:30:37.139Z,9.667953
2022-11-19T06:31:37.113Z,9.667956
2022-11-19T06:32:37.126Z,9.667990
2022-11-19T06:33:37.113Z,9.667962
2022-11-19T06:34:37.115Z,9.668012
2022-11-19T06:35:37.117Z,9.667972
2022-11-19T06:36:41.786Z,9.667913
2022-11-19T06:37:39.129Z,9.667877
2022-11-19T06:38:37.092Z,9.667826
2022-11-19T06:39:37.088Z,9.667932
2022-11-19T06:40:37.066Z,9.667942
2022-11-19T06:41:37.040Z,9.667939
2022-11-19T06:42:37.046Z,9.667995
2022-11-19T06:43:37.018Z,9.668018
2022-11-19T06:44:37.028Z,9.667969
2022-11-19T06:45:37.012Z,9.667981
2022-11-19T06:46:36.994Z,9.667996
2022-11-19T06:47:37.066Z,9.668030
2022-11-19T06:48:36.986Z,9.668030
2022-11-19T06:49:36.980Z,9.667999
2022-11-19T06:50:37.016Z,9.667988
2022-11-19T06:51:36.966Z,9.668032
2022-11-19T06:52:36.986Z,9.667962
2022-11-19T06:53:36.973Z,9.667956
2022-11-19T06:54:41.742Z,9.667984
2022-11-19T06:55:38.963Z,9.667973
2022-11-19T06:56:36.926Z,9.668001
2022-11-19T06:57:36.919Z,9.668008
2022-11-19T06:58:36.923Z,9.668097
2022-11-19T06:59:36.893Z,9.668063
2022-11-19T07:00:37.173Z,9.668063
2022-11-19T07:01:36.961Z,9.668139
2022-11-19T07:02:36.888Z,9.668153
2022-11-19T07:03:36.871Z,9.668096
2022-11-19T07:04:36.903Z,9.668019
2022-11-19T07:05:36.860Z,9.668090
2022-11-19T07:06:36.877Z,9.668023
2022-11-19T07:07:36.886Z,9.668051
2022-11-19T07:08:36.852Z,9.668018
2022-11-19T07:09:36.820Z,9.668038
2022-11-19T07:10:36.833Z,9.668020
2022-11-19T07:11:36.899Z,9.668047
2022-11-19T07:12:36.860Z,9.668018
2022-11-19T07:13:37.676Z,9.667992
2022-11-19T07:14:36.814Z,9.668050
2022-11-19T07:15:36.901Z,9.668010
2022-11-19T07:16:36.773Z,9.668016
2022-11-19T07:17:36.787Z,9.668026
2022-11-19T07:18:36.767Z,9.668077
2022-11-19T07:19:36.792Z,9.668009
2022-11-19T07:20:36.779Z,9.668002
2022-11-19T07:21:36.748Z,9.668016
2022-11-19T07:22:36.755Z,9.668056
2022-11-19T07:23:36.726Z,9.668043
2022-11-19T07:24:36.858Z,9.668069
2022-11-19T07:25:36.741Z,9.668054
2022-11-19T07:26:36.699Z,9.668027
2022-11-19T07:27:36.696Z,9.668060
2022-11-19T07:28:36.686Z,9.667985
2022-11-19T07:29:36.774Z,9.668039
2022-11-19T07:30:36.681Z,9.668038
2022-11-19T07:31:36.676Z,9.668042
2022-11-19T07:32:36.681Z,9.668017
2022-11-19T07:33:36.684Z,9.668017
2022-11-19T07:34:36.665Z,9.668036
2022-11-19T07:35:36.636Z,9.668089
2022-11-19T07:36:36.653Z,9.668086
2022-11-19T07:37:36.619Z,9.668104
2022-11-19T07:38:37.254Z,9.667973
2022-11-19T07:39:37.619Z,9.668021
2022-11-19T07:40:36.601Z,9.668027
2022-11-19T07:41:36.585Z,9.668124
2022-11-19T07:42:36.861Z,9.668062
2022-11-19T07:43:36.605Z,9.668006
2022-11-19T07:44:36.662Z,9.668092
2022-11-19T07:45:36.554Z,9.667972
2022-11-19T07:46:36.601Z,9.668017
2022-11-19T07:47:36.613Z,9.667992
2022-11-19T07:48:36.581Z,9.668017
2022-11-19T07:49:36.546Z,9.668031
2022-11-19T07:50:36.566Z,9.668038
2022-11-19T07:51:36.524Z,9.668025
2022-11-19T07:52:36.509Z,9.667997
2022-11-19T07:53:36.511Z,9.667991
2022-11-19T07:54:36.513Z,9.668022
2022-11-19T07:55:36.492Z,9.667996
2022-11-19T07:56:36.486Z,9.667986
2022-11-19T07:57:36.473Z,9.668085
2022-11-19T07:58:36.461Z,9.668003
2022-11-19T07:59:36.466Z,9.668021
2022-11-19T08:00:36.498Z,9.668049
2022-11-19T08:01:36.486Z,9.668047
2022-11-19T08:02:36.608Z,9.668079
2022-11-19T08:03:36.472Z,9.668050
2022-11-19T08:04:36.455Z,9.667986
2022-11-19T08:05:36.441Z,9.668004
2022-11-19T08:06:36.433Z,9.667988
2022-11-19T08:07:36.473Z,9.668036
2022-11-19T08:08:36.397Z,9.668022
2022-11-19T08:09:36.438Z,9.668019
2022-11-19T08:10:36.422Z,9.667994
2022-11-19T08:11:36.392Z,9.668034
2022-11-19T08:12:36.378Z,9.668022
2022-11-19T08:13:36.381Z,9.668032
2022-11-19T08:14:36.385Z,9.667989
2022-11-19T08:15:36.391Z,9.668034
2022-11-19T08:16:36.355Z,9.668072
2022-11-19T08:17:36.359Z,9.667996
2022-11-19T08:18:36.418Z,9.667987
2022-11-19T08:19:36.309Z,9.668061
2022-11-19T08:20:36.334Z,9.668058
2022-11-19T08:21:36.347Z,9.668023
2022-11-19T08:22:36.338Z,9.668033
2022-11-19T08:23:36.307Z,9.667995
2022-11-19T08:25:08.171Z,9.668018
2022-11-19T08:25:36.327Z,9.668011
2022-11-19T08:26:36.279Z,9.668001
2022-11-19T08:27:36.229Z,9.668075
2022-11-19T08:28:36.233Z,9.668032
2022-11-19T08:29:36.216Z,9.668022
2022-11-19T08:30:36.231Z,9.668007
2022-11-19T08:31:36.220Z,9.667972
2022-11-19T08:32:36.188Z,9.668008
2022-11-19T08:33:36.242Z,9.668002
2022-11-19T08:34:36.175Z,9.668015
2022-11-19T08:35:36.188Z,9.668035
2022-11-19T08:36:36.157Z,9.668001
2022-11-19T08:37:36.172Z,9.668004
2022-11-19T08:38:38.809Z,9.668008
2022-11-19T08:39:37.140Z,9.668005
2022-11-19T08:40:36.119Z,9.668033
2022-11-19T08:41:36.141Z,9.667999
2022-11-19T08:42:36.134Z,9.668064
2022-11-19T08:43:36.098Z,9.668049
2022-11-19T08:44:36.137Z,9.668052
2022-11-19T08:45:36.106Z,9.667995
2022-11-19T08:46:36.083Z,9.667998
2022-11-19T08:47:36.089Z,9.667989
2022-11-19T08:48:36.077Z,9.668041
2022-11-19T08:49:36.059Z,9.668042
2022-11-19T08:50:36.054Z,9.668017
2022-11-19T08:51:36.068Z,9.668029
2022-11-19T08:52:36.061Z,9.668026
2022-11-19T08:53:36.021Z,9.668012
2022-11-19T08:54:36.020Z,9.668017
2022-11-19T08:55:36.014Z,9.667994
2022-11-19T08:56:36.064Z,9.667999
2022-11-19T08:58:07.922Z,9.667972
2022-11-19T08:58:36.019Z,9.667931
2022-11-19T09:00:07.926Z,9.667988
2022-11-19T09:00:36.075Z,9.668005
2022-11-19T09:01:35.986Z,9.667990
2022-11-19T09:02:36.003Z,9.667916
2022-11-19T09:03:35.955Z,9.668027
2022-11-19T09:04:35.952Z,9.668039
2022-11-19T09:05:35.949Z,9.667946
2022-11-19T09:06:35.962Z,9.667963
2022-11-19T09:07:35.986Z,9.667969
2022-11-19T09:08:35.931Z,9.667970
2022-11-19T09:09:35.934Z,9.667975
2022-11-19T09:10:35.942Z,9.667977
2022-11-19T09:11:41.193Z,9.668034
2022-11-19T09:12:37.918Z,9.667953
2022-11-19T09:13:35.925Z,9.667944
2022-11-19T09:14:35.876Z,9.667959
2022-11-19T09:15:35.892Z,9.667987
2022-11-19T09:16:35.944Z,9.667924
2022-11-19T09:17:35.884Z,9.667977
2022-11-19T09:18:35.857Z,9.667996
2022-11-19T09:19:35.897Z,9.667992
2022-11-19T09:20:35.884Z,9.668000
2022-11-19T09:21:35.817Z,9.668005
2022-11-19T09:22:35.810Z,9.668071
2022-11-19T09:23:35.839Z,9.668096
2022-11-19T09:24:35.833Z,9.668009
2022-11-19T09:25:35.784Z,9.668079
2022-11-19T09:26:35.836Z,9.668070
2022-11-19T09:27:35.819Z,9.668054
2022-11-19T09:28:35.776Z,9.668012
2022-11-19T09:29:35.772Z,9.668028
2022-11-19T09:30:35.841Z,9.668055
2022-11-19T09:31:35.741Z,9.667990
2022-11-19T09:32:35.766Z,9.668041
2022-11-19T09:33:35.768Z,9.668075
2022-11-19T09:34:35.760Z,9.668079
2022-11-19T09:35:35.716Z,9.668045
2022-11-19T09:36:35.710Z,9.668062
2022-11-19T09:37:35.714Z,9.668047
2022-11-19T09:38:35.747Z,9.668031
2022-11-19T09:39:35.706Z,9.668027
2022-11-19T09:40:36.307Z,9.668024
2022-11-19T09:41:35.695Z,9.668032
2022-11-19T09:42:35.668Z,9.668034
2022-11-19T09:43:35.672Z,9.668056
2022-11-19T09:44:35.641Z,9.668047
2022-11-19T09:45:35.668Z,9.668055
2022-11-19T09:46:35.677Z,9.668019
2022-11-19T09:47:35.631Z,9.668040
2022-11-19T09:48:35.684Z,9.668028
2022-11-19T09:49:35.615Z,9.668050
2022-11-19T09:50:35.647Z,9.668036
2022-11-19T09:51:35.603Z,9.668031
2022-11-19T09:52:35.642Z,9.668039
2022-11-19T09:53:35.572Z,9.668054
2022-11-19T09:54:35.592Z,9.668026
2022-11-19T09:55:35.566Z,9.668013
2022-11-19T09:56:35.589Z,9.668062
2022-11-19T09:57:35.543Z,9.668024
2022-11-19T09:58:35.542Z,9.668027
2022-11-19T09:59:35.539Z,9.668046
2022-11-19T10:00:35.525Z,9.668086
2022-11-19T10:01:35.532Z,9.668054
2022-11-19T10:02:35.584Z,9.668070
2022-11-19T10:03:35.509Z,9.668046
2022-11-19T10:04:35.495Z,9.668003
2022-11-19T10:05:35.490Z,9.668021
2022-11-19T10:06:35.522Z,9.668040
2022-11-19T10:07:35.550Z,9.668036
2022-11-19T10:08:35.473Z,9.668087
2022-11-19T10:09:35.468Z,9.668052
2022-11-19T10:10:35.446Z,9.668033
2022-11-19T10:11:35.463Z,9.668030
2022-11-19T10:12:35.459Z,9.668010
2022-11-19T10:13:35.458Z,9.668011
2022-11-19T10:14:35.424Z,9.668019
2022-11-19T10:15:37.880Z,9.668024
2022-11-19T10:16:36.428Z,9.668018
2022-11-19T10:17:35.418Z,9.668020
2022-11-19T10:18:35.420Z,9.668098
2022-11-19T10:19:35.439Z,9.668007
2022-11-19T10:20:35.395Z,9.668055
2022-11-19T10:21:35.357Z,9.668055
2022-11-19T10:22:35.386Z,9.668034
2022-11-19T10:23:36.317Z,9.667998
2022-11-19T10:24:36.178Z,9.668027
2022-11-19T10:25:35.343Z,9.667996
2022-11-19T10:26:35.338Z,9.668000
2022-11-19T10:27:35.319Z,9.668008
2022-11-19T10:28:35.400Z,9.668011
2022-11-19T10:29:35.313Z,9.667990
2022-11-19T10:30:35.325Z,9.668049
2022-11-19T10:31:35.331Z,9.668042
2022-11-19T10:32:35.280Z,9.668066
2022-11-19T10:33:35.305Z,9.668025
2022-11-19T10:34:35.297Z,9.667993
2022-11-19T10:35:35.277Z,9.668028
2022-11-19T10:36:35.272Z,9.668073
2022-11-19T10:37:35.253Z,9.668003
2022-11-19T10:38:35.247Z,9.668013
2022-11-19T10:39:35.233Z,9.667995
2022-11-19T10:40:35.265Z,9.668037
2022-11-19T10:41:35.236Z,9.668054
2022-11-19T10:42:35.199Z,9.668039
2022-11-19T10:43:35.194Z,9.668003
2022-11-19T10:44:35.187Z,9.667997
2022-11-19T10:45:35.188Z,9.667995
2022-11-19T10:46:35.241Z,9.668010
2022-11-19T10:47:35.235Z,9.668035
2022-11-19T10:48:35.179Z,9.668060
2022-11-19T10:49:35.172Z,9.668015
2022-11-19T10:50:35.153Z,9.668077
2022-11-19T10:51:35.179Z,9.668019
2022-11-19T10:52:35.217Z,9.668039
2022-11-19T10:53:35.125Z,9.668087
2022-11-19T10:54:35.162Z,9.668051
2022-11-19T10:55:35.152Z,9.668029
2022-11-19T10:56:35.159Z,9.667997
2022-11-19T10:57:35.089Z,9.668019
2022-11-19T10:58:35.113Z,9.668007
2022-11-19T10:59:35.060Z,9.668038
2022-11-19T11:00:35.135Z,9.667995
2022-11-19T11:01:35.095Z,9.668030
2022-11-19T11:02:35.106Z,9.668041
2022-11-19T11:03:35.056Z,9.668041
2022-11-19T11:04:35.130Z,9.668035
2022-11-19T11:05:35.083Z,9.668045
2022-11-19T11:06:35.022Z,9.668013
2022-11-19T11:07:35.111Z,9.667993
2022-11-19T11:08:35.010Z,9.668055
2022-11-19T11:09:35.017Z,9.667961
2022-11-19T11:10:35.006Z,9.668040
2022-11-19T11:11:35.001Z,9.668052
2022-11-19T11:12:35.074Z,9.668092
2022-11-19T11:13:34.990Z,9.667998
2022-11-19T11:14:34.986Z,9.667969
2022-11-19T11:15:34.986Z,9.668066
2022-11-19T11:16:37.824Z,9.667974
2022-11-19T11:17:35.947Z,9.667969
2022-11-19T11:18:34.951Z,9.668071
2022-11-19T11:19:34.952Z,9.668015
2022-11-19T11:20:34.966Z,9.668072
2022-11-19T11:21:34.990Z,9.668041
2022-11-19T11:22:34.923Z,9.668047
2022-11-19T11:23:34.902Z,9.667961
2022-11-19T11:24:34.957Z,9.668022
2022-11-19T11:25:34.882Z,9.667994
2022-11-19T11:26:34.928Z,9.667928
2022-11-19T11:27:35.892Z,9.667993
2022-11-19T11:28:34.918Z,9.668011
2022-11-19T11:29:34.848Z,9.667968
2022-11-19T11:30:35.660Z,9.668008
2022-11-19T11:31:34.840Z,9.667961
2022-11-19T11:32:34.891Z,9.667979
2022-11-19T11:33:34.879Z,9.667914
2022-11-19T11:34:34.838Z,9.667921
2022-11-19T11:35:34.845Z,9.667916
2022-11-19T11:36:34.811Z,9.667864
2022-11-19T11:37:34.803Z,9.667954
2022-11-19T11:38:34.807Z,9.668002
2022-11-19T11:39:34.839Z,9.668031
2022-11-19T11:40:34.783Z,9.668000
2022-11-19T11:42:36.771Z,9.668017
2022-11-19T11:43:34.748Z,9.668036
2022-11-19T11:44:34.788Z,9.668072
2022-11-19T11:45:34.739Z,9.668018
2022-11-19T11:46:34.747Z,9.667936
2022-11-19T11:47:34.742Z,9.668010
2022-11-19T11:48:34.718Z,9.667974
2022-11-19T11:49:34.739Z,9.667959
2022-11-19T11:50:34.730Z,9.667971
2022-11-19T11:51:34.748Z,9.667968
2022-11-19T11:52:34.708Z,9.667962
2022-11-19T11:53:34.681Z,9.667969
2022-11-19T11:54:36.236Z,9.667953
2022-11-19T11:55:34.710Z,9.667960
2022-11-19T11:56:34.765Z,9.668000
2022-11-19T11:57:34.647Z,9.668015
2022-11-19T11:58:34.646Z,9.667953
2022-11-19T11:59:34.650Z,9.667929
2022-11-19T12:00:34.645Z,9.668028
2022-11-19T12:01:34.627Z,9.667913
2022-11-19T12:02:34.701Z,9.667989
2022-11-19T12:03:49.331Z,9.667935
2022-11-19T12:04:35.632Z,9.667967
2022-11-19T12:05:34.612Z,9.667975
2022-11-19T12:06:34.582Z,9.667926
2022-11-19T12:07:34.633Z,9.667933